Time;durP1;ratioP1;P1;durP2;ratioP2;P2;SDS_P1;SDS_P2;PMS_P1;PMS_P2;Temp;Humidity;BMP_temperature;BMP_pressure;BME280_temperature;BME280_humidity;BME280_pressure;Samples;Min_cycle;Max_cycle;Signal;HPM_P1;HPM_P2
2024/01/01 00:02:07;;;;;;;;;;;;;;;7.34;89.84;99756.53;5079440;28;19919;-69
2024/01/01 00:04:32;;;;;;;;;;;;;;;7.39;89.13;99757.34;5095838;28;19911;-69
2024/01/01 00:06:57;;;;;;;;;;;;;;;7.36;89.37;99763.44;5079439;28;19958;-69
2024/01/01 00:09:23;;;;;;;;;;;;;;;7.40;89.61;99766.88;5097426;28;20015;-69
2024/01/01 00:11:48;;;;;;;;;;;;;;;7.36;89.97;99762.59;5075144;28;19955;-70
2024/01/01 00:14:13;;;;;;;;;;;;;;;7.34;89.29;99759.13;5093334;28;20359;-69
2024/01/01 00:16:39;;;;;;;;;;;;;;;7.34;89.21;99772.16;5079373;28;19924;-69
2024/01/01 00:19:06;;;;;;;;;;;;;;;7.29;89.53;99782.69;5079165;28;19942;-69
2024/01/01 00:21:31;;;;;;;;;;;;;;;7.29;89.91;99772.25;5095529;28;20286;-70
2024/01/01 00:23:57;;;;;;;;;;;;;;;7.33;88.99;99789.56;5079352;28;19928;-66
2024/01/01 00:26:22;;;;;;;;;;;;;;;7.23;89.07;99780.16;5076963;28;19916;-68
2024/01/01 00:28:47;;;;;;;;;;;;;;;7.18;89.74;99784.56;5096023;28;19916;-70
2024/01/01 00:31:13;;;;;;;;;;;;;;;7.06;90.27;99776.06;5078861;28;19924;-69
2024/01/01 00:33:38;;;;;;;;;;;;;;;7.06;90.03;99789.06;5107484;27;20081;-67
2024/01/01 00:36:03;;;;;;;;;;;;;;;6.96;90.76;99784.03;5078965;28;20284;-69
2024/01/01 00:38:29;;;;;;;;;;;;;;;6.84;90.85;99785.03;5078781;28;20375;-70
2024/01/01 00:40:54;;;;;;;;;;;;;;;6.74;91.70;99795.59;5077654;28;20032;-69
2024/01/01 00:43:19;;;;;;;;;;;;;;;6.72;91.83;99788.66;5079074;28;20006;-68
2024/01/01 00:45:45;;;;;;;;;;;;;;;6.57;92.36;99781.94;5076889;27;19982;-72
2024/01/01 00:48:11;;;;;;;;;;;;;;;6.47;93.59;99794.19;5095352;27;19920;-77
2024/01/01 00:50:37;;;;;;;;;;;;;;;6.41;93.22;99781.25;5094952;28;19951;-74
2024/01/01 00:53:03;;;;;;;;;;;;;;;6.39;92.29;99786.47;5078683;28;19962;-73
2024/01/01 00:55:28;;;;;;;;;;;;;;;6.21;93.30;99779.72;5094373;28;19942;-75
2024/01/01 00:57:53;;;;;;;;;;;;;;;6.14;94.03;99791.09;5078873;28;19916;-77
2024/01/01 01:00:19;;;;;;;;;;;;;;;6.00;94.67;99792.97;5078344;28;19923;-73
2024/01/01 01:02:44;;;;;;;;;;;;;;;5.97;94.40;99790.38;5088349;28;20102;-73
2024/01/01 01:05:12;;;;;;;;;;;;;;;5.84;94.79;99798.25;5094751;28;20006;-76
2024/01/01 01:07:37;;;;;;;;;;;;;;;5.82;95.65;99787.03;5095192;28;19918;-73
2024/01/01 01:10:04;;;;;;;;;;;;;;;5.71;95.81;99800.09;5077830;28;20007;-75
2024/01/01 01:12:29;;;;;;;;;;;;;;;5.70;95.60;99792.31;5070973;28;20302;-71
2024/01/01 01:14:55;;;;;;;;;;;;;;;5.75;95.36;99789.69;5078887;28;19923;-73
2024/01/01 01:17:20;;;;;;;;;;;;;;;5.65;95.63;99802.78;5079358;28;19947;-76
2024/01/01 01:19:45;;;;;;;;;;;;;;;5.92;94.53;99797.34;5075995;28;19924;-69
2024/01/01 01:22:11;;;;;;;;;;;;;;;5.72;95.75;99801.84;5094670;28;20287;-69
2024/01/01 01:24:36;;;;;;;;;;;;;;;5.63;95.40;99814.94;5087443;28;20048;-72
2024/01/01 01:27:02;;;;;;;;;;;;;;;5.65;96.55;99809.72;5077818;27;19923;-76
2024/01/01 01:29:28;;;;;;;;;;;;;;;5.69;96.34;99807.06;5076813;28;19916;-75
2024/01/01 01:31:53;;;;;;;;;;;;;;;5.68;97.08;99815.75;5074279;27;20026;-75
2024/01/01 01:34:19;;;;;;;;;;;;;;;5.65;97.11;99804.53;5081178;27;19967;-74
2024/01/01 01:36:45;;;;;;;;;;;;;;;5.77;96.87;99811.34;5094843;27;20026;-69
2024/01/01 01:39:11;;;;;;;;;;;;;;;5.84;96.10;99811.25;5080629;28;20014;-69
2024/01/01 01:41:38;;;;;;;;;;;;;;;5.81;97.28;99826.03;5076083;28;19938;-68
2024/01/01 01:44:03;;;;;;;;;;;;;;;5.89;96.65;99813.84;5080554;28;19942;-69
2024/01/01 01:46:31;;;;;;;;;;;;;;;5.83;97.24;99806.09;5076602;28;20371;-69
2024/01/01 01:48:57;;;;;;;;;;;;;;;5.86;97.14;99811.25;5093853;28;19916;-67
2024/01/01 01:51:23;;;;;;;;;;;;;;;5.82;97.30;99813.03;5072169;28;20014;-69
2024/01/01 01:53:49;;;;;;;;;;;;;;;5.75;98.14;99808.75;5093268;28;19916;-68
2024/01/01 01:56:17;;;;;;;;;;;;;;;5.72;99.07;99817.44;5077002;28;19924;-68
2024/01/01 01:58:42;;;;;;;;;;;;;;;5.71;99.66;99809.66;5073909;28;19920;-69
2024/01/01 02:01:08;;;;;;;;;;;;;;;5.78;98.83;99813.94;5079654;27;20267;-67
2024/01/01 02:03:34;;;;;;;;;;;;;;;5.68;99.67;99818.34;5083248;28;19959;-69
2024/01/01 02:05:59;;;;;;;;;;;;;;;5.82;98.79;99813.03;5093778;28;20385;-70
2024/01/01 02:08:25;;;;;;;;;;;;;;;5.69;99.95;99811.41;5065563;28;19928;-68
2024/01/01 02:10:50;;;;;;;;;;;;;;;5.71;100.00;99810.50;5075989;28;19923;-69
2024/01/01 02:13:25;;;;;;;;;;;;;;;5.72;100.00;99806.19;5094141;27;20347;-67
2024/01/01 02:15:51;;;;;;;;;;;;;;;5.76;100.00;99820.00;5105864;28;20260;-68
2024/01/01 02:18:16;;;;;;;;;;;;;;;5.75;100.00;99813.97;5076927;28;19926;-69
2024/01/01 02:20:41;;;;;;;;;;;;;;;5.73;100.00;99823.50;5094215;28;19924;-69
2024/01/01 02:23:07;;;;;;;;;;;;;;;5.91;100.00;99819.88;5104619;28;20298;-69
2024/01/01 02:25:32;;;;;;;;;;;;;;;5.81;100.00;99820.84;5092547;28;19916;-68
2024/01/01 02:28:00;;;;;;;;;;;;;;;5.83;100.00;99819.97;5083289;28;19923;-68
2024/01/01 02:30:26;;;;;;;;;;;;;;;5.84;100.00;99824.25;5092977;28;19924;-69
2024/01/01 02:32:54;;;;;;;;;;;;;;;5.79;100.00;99828.66;5076567;28;20618;-68
2024/01/01 02:35:22;;;;;;;;;;;;;;;5.95;100.00;99816.38;5093095;28;19920;-67
2024/01/01 02:37:47;;;;;;;;;;;;;;;5.87;100.00;99831.19;5094209;28;19920;-68
2024/01/01 02:40:12;;;;;;;;;;;;;;;5.85;100.00;99828.59;5076409;28;19916;-69
2024/01/01 02:42:38;;;;;;;;;;;;;;;5.86;100.00;99835.53;5103436;28;19915;-68
2024/01/01 02:45:04;;;;;;;;;;;;;;;5.89;100.00;99843.31;5076359;28;19946;-68
2024/01/01 02:47:29;;;;;;;;;;;;;;;5.93;100.00;99843.28;5076002;28;19927;-70
2024/01/01 02:49:55;;;;;;;;;;;;;;;5.94;100.00;99845.00;5099946;28;19923;-70
2024/01/01 02:52:20;;;;;;;;;;;;;;;5.99;100.00;99831.13;5076788;28;19923;-71
2024/01/01 02:54:46;;;;;;;;;;;;;;;5.92;100.00;99833.72;5093217;28;19963;-71
2024/01/01 02:57:12;;;;;;;;;;;;;;;5.88;100.00;99838.97;5072726;28;19924;-70
2024/01/01 02:59:38;;;;;;;;;;;;;;;5.84;100.00;99842.47;5065459;28;19968;-69
2024/01/01 03:02:04;;;;;;;;;;;;;;;5.80;100.00;99835.56;5090626;28;19940;-70
2024/01/01 03:04:31;;;;;;;;;;;;;;;5.83;100.00;99835.56;5074383;28;19932;-71
2024/01/01 03:06:57;;;;;;;;;;;;;;;5.95;100.00;99841.50;5078115;28;19942;-67
2024/01/01 03:09:25;;;;;;;;;;;;;;;5.85;100.00;99849.41;5087325;28;19916;-69
2024/01/01 03:11:50;;;;;;;;;;;;;;;5.87;100.00;99839.84;5084382;28;19928;-72
2024/01/01 03:14:18;;;;;;;;;;;;;;;5.87;100.00;99841.59;5079051;28;20355;-71
2024/01/01 03:16:44;;;;;;;;;;;;;;;5.87;100.00;99842.44;5093429;28;19920;-70
2024/01/01 03:19:09;;;;;;;;;;;;;;;5.85;100.00;99841.59;5072705;28;19920;-70
2024/01/01 03:21:35;;;;;;;;;;;;;;;5.79;100.00;99843.38;5077689;28;19928;-70
2024/01/01 03:24:03;;;;;;;;;;;;;;;5.83;100.00;99852.88;5079339;28;20366;-70
2024/01/01 03:26:29;;;;;;;;;;;;;;;5.84;100.00;99865.00;5099837;27;19938;-71
2024/01/01 03:28:54;;;;;;;;;;;;;;;5.86;100.00;99851.13;5074728;28;20394;-70
2024/01/01 03:31:19;;;;;;;;;;;;;;;5.92;100.00;99854.53;5093410;28;19970;-69
2024/01/01 03:33:51;;;;;;;;;;;;;;;5.97;100.00;99865.78;5064642;28;19928;-71
2024/01/01 03:36:16;;;;;;;;;;;;;;;5.86;100.00;99860.66;5079039;28;19931;-70
2024/01/01 03:38:44;;;;;;;;;;;;;;;5.91;100.00;99864.09;5095807;28;19920;-70
2024/01/01 03:41:10;;;;;;;;;;;;;;;5.89;100.00;99861.50;5093900;28;19920;-70
2024/01/01 03:43:35;;;;;;;;;;;;;;;5.92;100.00;99864.94;5077621;28;19917;-71
2024/01/01 03:46:00;;;;;;;;;;;;;;;5.94;100.00;99871.00;5081646;28;19920;-68
2024/01/01 03:48:26;;;;;;;;;;;;;;;5.96;100.00;99857.13;5076857;28;20010;-77
2024/01/01 03:50:54;;;;;;;;;;;;;;;5.96;100.00;99864.94;5067272;28;19974;-77
2024/01/01 03:53:20;;;;;;;;;;;;;;;5.93;100.00;99859.72;5092989;28;19916;-73
2024/01/01 03:55:45;;;;;;;;;;;;;;;5.93;100.00;99857.13;5073605;28;19973;-73
2024/01/01 03:58:11;;;;;;;;;;;;;;;5.96;100.00;99851.03;5079003;28;20018;-78
2024/01/01 04:00:36;;;;;;;;;;;;;;;5.92;100.00;99847.63;5094355;28;20331;-79
2024/01/01 04:03:02;;;;;;;;;;;;;;;5.95;100.00;99850.19;5089500;28;19919;-75
2024/01/01 04:05:31;;;;;;;;;;;;;;;5.91;100.00;99869.28;5090420;28;19920;-74
2024/01/01 04:07:56;;;;;;;;;;;;;;;5.88;100.00;99844.16;5095642;28;19923;-75
2024/01/01 04:10:21;;;;;;;;;;;;;;;5.83;100.00;99868.47;5091506;28;19924;-71
2024/01/01 04:12:49;;;;;;;;;;;;;;;5.88;100.00;99858.91;5083328;27;20370;-75
2024/01/01 04:15:15;;;;;;;;;;;;;;;5.81;100.00;99855.50;5094602;28;20018;-78
2024/01/01 04:17:40;;;;;;;;;;;;;;;5.95;100.00;99860.59;5077435;28;19998;-78
2024/01/01 04:20:10;;;;;;;;;;;;;;;5.87;100.00;99863.25;5094025;28;19973;-74
2024/01/01 04:22:37;;;;;;;;;;;;;;;5.90;100.00;99850.22;5080758;27;19928;-76
2024/01/01 04:25:06;;;;;;;;;;;;;;;5.87;100.00;99855.44;5078259;28;19920;-76
2024/01/01 04:27:31;;;;;;;;;;;;;;;5.88;100.00;99864.13;5079843;27;20445;-76
2024/01/01 04:29:56;;;;;;;;;;;;;;;5.88;100.00;99864.97;5082686;27;20010;-77
2024/01/01 04:32:22;;;;;;;;;;;;;;;5.80;100.00;99864.16;5082069;27;19931;-69
2024/01/01 04:34:48;;;;;;;;;;;;;;;5.84;100.00;99871.06;5099011;27;19919;-70
2024/01/01 04:37:13;;;;;;;;;;;;;;;5.82;100.00;99869.34;5081802;27;19921;-71
2024/01/01 04:39:39;;;;;;;;;;;;;;;5.85;100.00;99870.19;5103437;27;19961;-70
2024/01/01 04:42:04;;;;;;;;;;;;;;;5.82;100.00;99869.34;5079157;28;19978;-76
2024/01/01 04:44:29;;;;;;;;;;;;;;;5.86;100.00;99866.72;5078333;28;19919;-75
2024/01/01 04:46:55;;;;;;;;;;;;;;;5.89;100.00;99869.31;5078528;27;20283;-76
2024/01/01 04:49:20;;;;;;;;;;;;;;;5.94;100.00;99864.06;5094097;28;19928;-79
2024/01/01 04:51:45;;;;;;;;;;;;;;;5.97;100.00;99873.56;5078361;28;20000;-75
2024/01/01 04:54:11;;;;;;;;;;;;;;;5.93;100.00;99883.13;5070259;28;19970;-79
2024/01/01 04:56:36;;;;;;;;;;;;;;;5.97;100.00;99873.56;5076395;27;19927;-70
2024/01/01 04:59:03;;;;;;;;;;;;;;;5.94;100.00;99871.00;5110807;28;19915;-68
2024/01/01 05:01:31;;;;;;;;;;;;;;;5.95;100.00;99885.72;5094862;28;19916;-70
2024/01/01 05:03:56;;;;;;;;;;;;;;;6.00;100.00;99884.84;5077172;28;19977;-78
2024/01/01 05:06:22;;;;;;;;;;;;;;;5.88;100.00;99895.31;5099059;27;19951;-78
2024/01/01 05:08:47;;;;;;;;;;;;;;;5.85;100.00;99901.41;5097398;28;19965;-77
2024/01/01 05:11:12;;;;;;;;;;;;;;;5.95;100.00;99886.59;5077533;28;19927;-71
2024/01/01 05:13:38;;;;;;;;;;;;;;;5.88;100.00;99895.31;5076244;27;19919;-74
2024/01/01 05:16:08;;;;;;;;;;;;;;;5.90;100.00;99898.75;5075858;28;19930;-77
2024/01/01 05:18:34;;;;;;;;;;;;;;;5.90;100.00;99902.25;5095659;28;20364;-76
2024/01/01 05:21:00;;;;;;;;;;;;;;;5.88;100.00;99900.53;5083609;28;19923;-78
2024/01/01 05:23:25;;;;;;;;;;;;;;;5.95;100.00;99903.91;5077549;28;19973;-75
2024/01/01 05:25:50;;;;;;;;;;;;;;;5.90;100.00;99899.63;5082990;27;19931;-77
2024/01/01 05:28:16;;;;;;;;;;;;;;;5.95;100.00;99896.13;5079821;28;19963;-74
2024/01/01 05:30:41;;;;;;;;;;;;;;;5.87;100.00;99906.59;5086211;27;19932;-78
2024/01/01 05:33:12;;;;;;;;;;;;;;;5.88;100.00;99921.31;5078130;27;19930;-78
2024/01/01 05:35:39;;;;;;;;;;;;;;;5.88;100.00;99922.19;5084223;27;19935;-77
2024/01/01 05:38:04;;;;;;;;;;;;;;;5.91;100.00;99918.69;5089377;27;19927;-77
2024/01/01 05:40:29;;;;;;;;;;;;;;;5.91;100.00;99918.69;5085228;27;19919;-80
2024/01/01 05:42:55;;;;;;;;;;;;;;;5.92;100.00;99914.34;5099544;27;19928;-75
2024/01/01 05:45:20;;;;;;;;;;;;;;;5.94;100.00;99905.66;5075052;28;19927;-74
2024/01/01 05:47:45;;;;;;;;;;;;;;;5.91;100.00;99916.09;5103488;28;19919;-77
2024/01/01 05:50:14;;;;;;;;;;;;;;;5.90;100.00;99930.84;5077544;28;19920;-70
2024/01/01 05:52:40;;;;;;;;;;;;;;;5.96;100.00;99926.47;5080874;28;19972;-73
2024/01/01 05:55:05;;;;;;;;;;;;;;;5.99;99.51;99918.66;5095851;28;19920;-71
2024/01/01 05:57:33;;;;;;;;;;;;;;;5.94;99.94;99930.81;5077582;28;19920;-71
2024/01/01 05:59:59;;;;;;;;;;;;;;;5.94;100.00;99936.03;5095147;28;19919;-71
2024/01/01 06:02:24;;;;;;;;;;;;;;;5.93;99.92;99926.47;5071490;28;20390;-71
2024/01/01 06:04:49;;;;;;;;;;;;;;;5.85;100.00;99942.16;5076897;27;19923;-70
2024/01/01 06:07:15;;;;;;;;;;;;;;;5.84;100.00;99949.06;5078121;28;19954;-71
2024/01/01 06:09:40;;;;;;;;;;;;;;;5.99;100.00;99952.47;5082991;27;19967;-71
2024/01/01 06:12:06;;;;;;;;;;;;;;;5.82;100.00;99960.34;5068406;27;19931;-70
2024/01/01 06:14:31;;;;;;;;;;;;;;;5.80;100.00;99965.56;5082030;28;19985;-79
2024/01/01 06:16:58;;;;;;;;;;;;;;;5.77;100.00;99968.19;5076613;28;20417;-74
2024/01/01 06:19:23;;;;;;;;;;;;;;;5.72;100.00;99963.00;5079778;27;20290;-80
2024/01/01 06:21:49;;;;;;;;;;;;;;;5.72;100.00;99960.41;5094041;27;19919;-78
2024/01/01 06:24:14;;;;;;;;;;;;;;;5.76;100.00;99969.06;5093996;28;20002;-75
2024/01/01 06:26:39;;;;;;;;;;;;;;;5.71;100.00;99971.69;5080669;28;20353;-80
2024/01/01 06:29:07;;;;;;;;;;;;;;;5.75;100.00;99963.84;5079752;28;20003;-78
2024/01/01 06:31:32;;;;;;;;;;;;;;;5.78;100.00;99982.91;5093281;28;20465;-76
2024/01/01 06:33:58;;;;;;;;;;;;;;;5.76;100.00;99983.78;5077811;28;20019;-76
2024/01/01 06:36:23;;;;;;;;;;;;;;;5.71;100.00;99991.63;5100196;27;19926;-76
2024/01/01 06:38:48;;;;;;;;;;;;;;;5.67;100.00;100001.16;5098604;28;19998;-78
2024/01/01 06:41:13;;;;;;;;;;;;;;;5.66;100.00;99994.25;5079534;28;19920;-74
2024/01/01 06:43:40;;;;;;;;;;;;;;;5.61;100.00;100008.16;5077751;28;19928;-78
2024/01/01 06:46:05;;;;;;;;;;;;;;;5.60;100.00;100009.00;5078344;28;19928;-75
2024/01/01 06:48:30;;;;;;;;;;;;;;;5.57;100.00;99998.63;5089958;28;19915;-74
2024/01/01 06:50:56;;;;;;;;;;;;;;;5.47;100.00;100019.44;5076879;28;19963;-75
2024/01/01 06:53:21;;;;;;;;;;;;;;;5.42;100.00;100021.22;5091953;28;19919;-76
2024/01/01 06:55:46;;;;;;;;;;;;;;;5.41;100.00;100029.00;5074820;28;19956;-78
2024/01/01 06:58:12;;;;;;;;;;;;;;;5.39;100.00;100034.22;5087111;28;19919;-77
2024/01/01 07:00:37;;;;;;;;;;;;;;;5.42;100.00;100034.19;5094815;28;19927;-78
2024/01/01 07:03:05;;;;;;;;;;;;;;;5.43;100.00;100041.13;5072737;28;20322;-77
2024/01/01 07:05:33;;;;;;;;;;;;;;;5.44;100.00;100040.25;5078914;28;19920;-70
2024/01/01 07:08:03;;;;;;;;;;;;;;;5.50;100.00;100045.44;5093564;28;20003;-74
2024/01/01 07:10:28;;;;;;;;;;;;;;;5.48;100.00;100049.75;5091752;28;19963;-76
2024/01/01 07:12:54;;;;;;;;;;;;;;;5.50;100.00;100045.44;5073298;28;20462;-75
2024/01/01 07:15:20;;;;;;;;;;;;;;;5.51;100.00;100041.94;5076335;28;19927;-78
2024/01/01 07:17:45;;;;;;;;;;;;;;;5.55;100.00;100042.81;5076629;28;19969;-78
2024/01/01 07:20:12;;;;;;;;;;;;;;;5.56;100.00;100041.97;5070881;28;19931;-79
2024/01/01 07:22:37;;;;;;;;;;;;;;;5.53;100.00;100054.94;5089748;28;20371;-75
2024/01/01 07:25:03;;;;;;;;;;;;;;;5.46;100.00;100053.22;5116061;28;19918;-77
2024/01/01 07:27:28;;;;;;;;;;;;;;;5.50;100.00;100058.44;5083678;28;19916;-77
2024/01/01 07:29:53;;;;;;;;;;;;;;;5.46;100.00;100064.50;5093090;28;19912;-79
2024/01/01 07:32:19;;;;;;;;;;;;;;;5.50;100.00;100070.53;5079507;28;20273;-79
2024/01/01 07:34:44;;;;;;;;;;;;;;;5.47;100.00;100065.38;5086832;28;20417;-70
2024/01/01 07:37:11;;;;;;;;;;;;;;;5.47;100.00;100074.00;5099533;28;19931;-71
2024/01/01 07:39:37;;;;;;;;;;;;;;;5.44;100.00;100075.78;5073169;28;19931;-71
2024/01/01 07:42:03;;;;;;;;;;;;;;;5.45;100.00;100090.50;5089179;28;19923;-71
2024/01/01 07:44:28;;;;;;;;;;;;;;;5.33;100.00;100086.19;5095720;28;19915;-78
2024/01/01 07:46:53;;;;;;;;;;;;;;;5.36;100.00;100081.84;5093805;28;20386;-77
2024/01/01 07:49:18;;;;;;;;;;;;;;;5.30;100.00;100102.66;5082165;28;20025;-77
2024/01/01 07:51:44;;;;;;;;;;;;;;;5.28;100.00;100098.31;5080187;28;19935;-76
2024/01/01 07:54:10;;;;;;;;;;;;;;;5.31;100.00;100101.78;5080127;28;19970;-76
2024/01/01 07:56:43;;;;;;;;;;;;;;;5.33;100.00;100096.56;5079896;28;19973;-75
2024/01/01 07:59:08;;;;;;;;;;;;;;;5.34;100.00;100108.69;5101772;28;19922;-75
2024/01/01 08:01:34;;;;;;;;;;;;;;;5.36;100.00;100099.19;5081389;28;20724;-78
2024/01/01 08:03:59;;;;;;;;;;;;;;;5.37;100.00;100109.56;5094060;27;19923;-72
2024/01/01 08:06:24;;;;;;;;;;;;;;;5.36;100.00;100110.44;5099671;28;19989;-76
2024/01/01 08:08:50;;;;;;;;;;;;;;;5.34;100.00;100108.69;5080695;27;20375;-75
2024/01/01 08:11:15;;;;;;;;;;;;;;;5.32;100.00;100115.66;5086673;27;20027;-74
2024/01/01 08:13:40;;;;;;;;;;;;;;;5.29;100.00;100124.31;5083086;27;19995;-75
2024/01/01 08:16:06;;;;;;;;;;;;;;;5.26;100.00;100123.44;5082607;27;20232;-75
2024/01/01 08:18:31;;;;;;;;;;;;;;;5.28;100.00;100129.50;5099421;27;19923;-73
2024/01/01 08:21:00;;;;;;;;;;;;;;;5.28;100.00;100138.16;5083432;27;19926;-75
2024/01/01 08:23:25;;;;;;;;;;;;;;;5.31;100.00;100145.09;5102281;28;19920;-77
2024/01/01 08:25:53;;;;;;;;;;;;;;;5.34;100.00;100145.97;5110733;27;19926;-77
2024/01/01 08:28:18;;;;;;;;;;;;;;;5.46;100.00;100154.56;5082043;27;19922;-79
2024/01/01 08:30:44;;;;;;;;;;;;;;;5.49;100.00;100160.66;5075786;28;19924;-74
2024/01/01 08:33:09;;;;;;;;;;;;;;;5.59;100.00;100155.41;5102675;28;19915;-76
2024/01/01 08:35:35;;;;;;;;;;;;;;;5.63;100.00;100164.94;5103710;27;20085;-79
2024/01/01 08:38:00;;;;;;;;;;;;;;;5.73;100.00;100172.72;5078051;28;19924;-75
2024/01/01 08:40:25;;;;;;;;;;;;;;;5.74;100.00;100165.78;5074289;28;19923;-75
2024/01/01 08:42:51;;;;;;;;;;;;;;;5.74;100.00;100178.78;5100990;28;19924;-79
2024/01/01 08:45:19;;;;;;;;;;;;;;;5.74;100.00;100176.19;5097905;27;19965;-75
2024/01/01 08:47:45;;;;;;;;;;;;;;;5.75;100.00;100187.44;5087853;28;20083;-78
2024/01/01 08:50:11;;;;;;;;;;;;;;;5.78;100.00;100185.69;5099019;27;19923;-79
2024/01/01 08:52:37;;;;;;;;;;;;;;;5.82;100.00;100183.94;5082664;28;19927;-78
2024/01/01 08:55:03;;;;;;;;;;;;;;;5.89;100.00;100178.75;5078121;28;20288;-75
2024/01/01 08:57:30;;;;;;;;;;;;;;;6.01;100.00;100182.22;5077823;28;20287;-80
2024/01/01 08:59:56;;;;;;;;;;;;;;;6.03;100.00;100188.25;5075158;28;19920;-77
2024/01/01 09:02:21;;;;;;;;;;;;;;;6.05;100.00;100190.00;5094066;28;19962;-78
2024/01/01 09:04:46;;;;;;;;;;;;;;;6.07;100.00;100202.97;5072157;28;20295;-75
2024/01/01 09:07:11;;;;;;;;;;;;;;;6.03;100.00;100201.25;5092469;28;19923;-75
2024/01/01 09:09:37;;;;;;;;;;;;;;;6.00;100.00;100198.69;5083159;28;20373;-77
2024/01/01 09:12:02;;;;;;;;;;;;;;;6.06;100.00;100203.84;5072825;28;20478;-77
2024/01/01 09:14:28;;;;;;;;;;;;;;;6.22;100.00;100210.75;5088929;27;19911;-79
2024/01/01 09:16:53;;;;;;;;;;;;;;;6.45;100.00;100214.09;5078579;28;19947;-74
2024/01/01 09:19:18;;;;;;;;;;;;;;;6.57;100.00;100204.50;5084255;28;19920;-80
2024/01/01 09:21:44;;;;;;;;;;;;;;;6.65;100.00;100216.59;5077865;28;19920;-78
2024/01/01 09:24:09;;;;;;;;;;;;;;;6.57;100.00;100222.72;5092981;28;20421;-78
2024/01/01 09:26:39;;;;;;;;;;;;;;;6.48;100.00;100225.38;5073224;28;19932;-79
2024/01/01 09:31:32;;;;;;;;;;;;;;;6.47;100.00;100233.19;5163334;22;19925;-71
2024/01/01 09:39:29;;;;;;;;;;;;;;;6.57;100.00;100230.53;5161191;22;19942;-69
2024/01/01 09:47:09;;;;;;;;;;;;;;;6.50;100.00;100254.84;5203040;22;19922;-69
2024/01/01 10:14:20;;;;;;;;;;;;;;;7.05;100.00;100273.66;3405951;26;19953;-70
2024/01/01 10:16:45;;;;;;;;;;;;;;;7.18;100.00;100295.28;5067655;28;19920;-76
2024/01/01 10:19:12;;;;;;;;;;;;;;;7.12;100.00;100290.97;5053681;28;19920;-71
2024/01/01 10:21:38;;;;;;;;;;;;;;;7.01;100.00;100290.19;5034914;28;20009;-71
2024/01/01 10:24:13;;;;;;;;;;;;;;;7.03;100.00;100299.72;5054602;28;19929;-70
2024/01/01 10:26:42;;;;;;;;;;;;;;;7.46;100.00;100295.97;5046675;28;19916;-70
2024/01/01 10:29:12;;;;;;;;;;;;;;;7.41;100.00;100301.22;5033263;28;19921;-70
2024/01/01 10:31:43;;;;;;;;;;;;;;;7.30;100.00;100310.84;5034624;28;19963;-70
2024/01/01 10:34:09;;;;;;;;;;;;;;;7.32;100.00;100316.06;5052473;28;19948;-70
2024/01/01 10:36:34;;;;;;;;;;;;;;;8.33;99.27;100314.28;5014054;28;19982;-70
2024/01/01 10:39:00;;;;;;;;;;;;;;;8.77;96.02;100319.91;5047403;28;19963;-70
2024/01/01 10:41:25;;;;;;;;;;;;;;;8.81;94.95;100318.97;5056030;28;19929;-69
2024/01/01 10:43:51;;;;;;;;;;;;;;;9.02;94.65;100323.94;5047354;28;19924;-79
2024/01/01 10:46:18;;;;;;;;;;;;;;;9.07;94.61;100323.84;5030462;28;19920;-78
2024/01/01 10:48:45;;;;;;;;;;;;;;;9.75;93.23;100320.19;5030709;28;19917;-70
2024/01/01 10:51:30;;;;;;;;;;;;;;;10.05;91.54;100313.56;5033304;28;19924;-69
2024/01/01 10:54:34;;;;;;;;;;;;;;;9.68;91.29;100310.72;5029381;28;20002;-71
2024/01/01 10:57:02;;;;;;;;;;;;;;;10.35;91.63;100321.78;4987884;28;19967;-79
2024/01/01 10:59:34;;;;;;;;;;;;;;;10.33;90.06;100318.31;4989633;28;20389;-76
2024/01/01 11:02:00;;;;;;;;;;;;;;;9.69;90.97;100322.94;5030961;28;19959;-72
2024/01/01 11:04:26;;;;;;;;;;;;;;;9.23;94.59;100321.88;5049289;28;19952;-71
2024/01/01 11:06:51;;;;;;;;;;;;;;;8.77;95.53;100328.59;5042216;28;19963;-71
2024/01/01 11:09:16;;;;;;;;;;;;;;;8.62;97.07;100318.31;5038219;28;20012;-71
2024/01/01 11:11:45;;;;;;;;;;;;;;;10.02;94.12;100329.31;5066902;28;19955;-77
2024/01/01 11:14:22;;;;;;;;;;;;;;;11.20;88.28;100327.88;4988251;28;1871117;-79
2024/01/01 11:16:50;;;;;;;;;;;;;;;10.80;88.38;100338.38;5066307;28;19967;-77
2024/01/01 11:19:35;;;;;;;;;;;;;;;10.17;90.54;100332.56;5054722;28;19917;-76
2024/01/01 11:22:23;;;;;;;;;;;;;;;9.54;92.22;100331.91;5068385;28;19982;-69
2024/01/01 11:24:50;;;;;;;;;;;;;;;8.94;95.19;100341.44;5032954;28;19968;-69
2024/01/01 11:27:34;;;;;;;;;;;;;;;8.49;95.63;100351.56;5049335;28;19946;-70
2024/01/01 11:30:07;;;;;;;;;;;;;;;8.25;96.70;100343.09;5065778;28;20008;-69
2024/01/01 11:32:32;;;;;;;;;;;;;;;8.05;97.78;100352.84;5049357;28;20385;-71
2024/01/01 11:35:05;;;;;;;;;;;;;;;7.91;98.64;100352.97;5052973;28;19930;-71
2024/01/01 11:37:30;;;;;;;;;;;;;;;7.80;98.47;100356.53;5071086;28;20342;-70
2024/01/01 11:39:56;;;;;;;;;;;;;;;7.75;99.33;100370.50;5062905;28;20016;-70
2024/01/01 11:42:22;;;;;;;;;;;;;;;7.59;99.77;100372.34;5058541;28;19928;-70
2024/01/01 11:44:47;;;;;;;;;;;;;;;7.48;99.86;100372.41;5053991;28;19920;-71
2024/01/01 11:47:17;;;;;;;;;;;;;;;7.43;100.00;100380.28;5039267;28;19927;-71
2024/01/01 11:49:42;;;;;;;;;;;;;;;7.52;99.99;100370.66;5055630;28;20327;-78
2024/01/01 11:52:09;;;;;;;;;;;;;;;7.54;100.00;100377.59;5049944;28;19934;-71
2024/01/01 11:54:35;;;;;;;;;;;;;;;7.66;99.48;100370.53;5025177;28;20019;-72
2024/01/01 11:57:03;;;;;;;;;;;;;;;7.66;99.20;100381.88;5035090;28;20019;-78
2024/01/01 11:59:29;;;;;;;;;;;;;;;7.69;99.08;100374.00;5040314;28;20015;-81
2024/01/01 12:01:54;;;;;;;;;;;;;;;7.68;98.81;100381.84;5055836;28;20012;-71
2024/01/01 12:04:20;;;;;;;;;;;;;;;7.59;98.97;100377.56;5054245;28;19921;-70
2024/01/01 12:06:50;;;;;;;;;;;;;;;7.63;98.44;100374.91;5052657;28;19944;-78
2024/01/01 12:09:18;;;;;;;;;;;;;;;7.59;98.40;100375.81;5054714;28;19966;-75
2024/01/01 12:11:43;;;;;;;;;;;;;;;7.56;98.25;100372.38;5042221;28;19920;-77
2024/01/01 12:14:09;;;;;;;;;;;;;;;7.55;98.36;100381.06;5072834;28;19973;-75
2024/01/01 12:16:36;;;;;;;;;;;;;;;7.54;98.20;100376.72;5067232;28;19916;-77
2024/01/01 12:19:09;;;;;;;;;;;;;;;7.57;98.51;100371.47;5039905;28;19969;-77
2024/01/01 12:21:44;;;;;;;;;;;;;;;7.59;97.92;100365.38;5041331;28;19982;-78
2024/01/01 12:24:14;;;;;;;;;;;;;;;7.66;97.38;100371.44;5038295;28;19924;-79
2024/01/01 12:26:39;;;;;;;;;;;;;;;7.78;96.79;100365.25;5055096;28;19981;-79
2024/01/01 12:29:08;;;;;;;;;;;;;;;7.97;96.09;100372.06;5055844;28;20015;-74
2024/01/01 12:31:33;;;;;;;;;;;;;;;8.01;96.02;100369.41;5055264;28;20359;-79
2024/01/01 12:33:59;;;;;;;;;;;;;;;7.98;95.28;100367.69;5043732;28;19925;-79
2024/01/01 12:36:24;;;;;;;;;;;;;;;7.96;95.42;100370.31;5054597;28;19985;-74
2024/01/01 12:38:49;;;;;;;;;;;;;;;7.96;95.28;100372.94;5038835;28;20275;-78
2024/01/01 12:41:17;;;;;;;;;;;;;;;8.04;94.88;100382.44;5035228;28;19916;-75
2024/01/01 12:43:42;;;;;;;;;;;;;;;8.09;95.40;100378.06;5063375;28;19912;-77
2024/01/01 12:46:08;;;;;;;;;;;;;;;8.05;94.66;100377.19;5055297;28;19923;-77
2024/01/01 12:48:34;;;;;;;;;;;;;;;7.98;95.17;100373.78;5055393;28;19920;-80
2024/01/01 12:51:02;;;;;;;;;;;;;;;7.93;95.55;100377.28;5035261;28;20034;-78
2024/01/01 12:53:29;;;;;;;;;;;;;;;7.85;95.48;100377.38;5070613;28;19920;-77
2024/01/01 12:55:54;;;;;;;;;;;;;;;7.82;96.19;100376.53;5054246;28;20005;-78
2024/01/01 12:58:19;;;;;;;;;;;;;;;7.68;96.08;100384.47;5038928;28;19964;-77
2024/01/01 13:00:45;;;;;;;;;;;;;;;7.67;96.37;100377.50;5038611;28;20011;-77
2024/01/01 13:03:11;;;;;;;;;;;;;;;7.68;95.76;100380.09;5055088;28;19946;-78
2024/01/01 13:05:39;;;;;;;;;;;;;;;7.67;96.67;100382.72;5034709;28;20337;-78
2024/01/01 13:08:04;;;;;;;;;;;;;;;7.70;96.15;100388.78;5062968;28;19921;-77
2024/01/01 13:10:29;;;;;;;;;;;;;;;7.96;95.18;100383.38;5035377;28;19921;-79
2024/01/01 13:12:55;;;;;;;;;;;;;;;8.45;94.55;100383.84;5055243;28;19917;-77
2024/01/01 13:15:23;;;;;;;;;;;;;;;8.92;91.90;100395.50;5054828;28;19924;-76
2024/01/01 13:17:49;;;;;;;;;;;;;;;9.01;90.95;100395.38;5054886;28;20368;-78
2024/01/01 13:20:15;;;;;;;;;;;;;;;8.98;91.13;100398.03;5050897;28;19933;-77